createdAt,value
2022-10-14T00:00:43.408Z,99002.16
2022-10-14T00:03:10.058Z,98999.84
2022-10-14T00:05:40.115Z,99003.44
2022-10-14T00:08:08.926Z,99006.34
2022-10-14T00:10:39.685Z,98992.84
2022-10-14T00:13:06.622Z,98999.50
2022-10-14T00:15:40.658Z,99002.59
2022-10-14T00:18:09.466Z,99000.94
2022-10-14T00:20:36.390Z,99005.53
2022-10-14T00:23:03.212Z,98993.03
2022-10-14T00:25:30.127Z,98997.19
2022-10-14T00:27:56.787Z,98988.88
2022-10-14T00:30:23.463Z,98993.06
2022-10-14T00:32:49.995Z,98998.47
2022-10-14T00:35:16.646Z,98998.91
2022-10-14T00:37:43.231Z,99002.22
2022-10-14T00:40:10.408Z,99008.25
2022-10-14T00:42:36.917Z,99010.19
2022-10-14T00:45:12.353Z,99011.22
2022-10-14T00:47:39.348Z,99015.41
2022-10-14T00:50:09.463Z,99002.69
2022-10-14T00:52:36.158Z,99002.69
2022-10-14T00:55:07.017Z,99009.97
2022-10-14T00:57:35.408Z,99001.44
2022-10-14T01:00:08.744Z,99013.50
2022-10-14T01:02:35.813Z,99010.59
2022-10-14T01:05:03.403Z,99004.13
2022-10-14T01:07:32.937Z,99004.34
2022-10-14T01:10:09.660Z,99001.22
2022-10-14T01:12:57.672Z,98992.09
2022-10-14T01:16:09.370Z,98990.81
2022-10-14T01:19:05.929Z,98997.06
2022-10-14T01:21:40.177Z,98998.94
2022-10-14T01:24:26.337Z,98998.94
2022-10-14T01:27:15.565Z,98988.53
2022-10-14T01:30:10.285Z,98980.19
2022-10-14T01:32:48.575Z,98993.31
2022-10-14T01:35:31.163Z,98985.84
2022-10-14T01:38:06.742Z,98981.69
2022-10-14T01:40:37.536Z,98981.25
2022-10-14T01:43:04.900Z,98976.88
2022-10-14T01:45:33.972Z,98976.47
2022-10-14T01:48:01.858Z,98986.66
2022-10-14T01:50:29.193Z,98975.00
2022-10-14T01:53:04.321Z,98963.13
2022-10-14T01:55:35.571Z,98971.69
2022-10-14T01:58:02.634Z,98956.50
2022-10-14T02:00:29.461Z,98956.50
2022-10-14T02:03:00.979Z,98970.66
2022-10-14T02:05:27.425Z,98971.09
2022-10-14T02:08:03.110Z,98968.59
2022-10-14T02:10:40.858Z,98957.56
2022-10-14T02:13:26.835Z,98960.06
2022-10-14T02:16:19.821Z,98966.72
2022-10-14T02:19:02.467Z,98962.75
2022-10-14T02:21:35.502Z,98965.47
2022-10-14T02:24:07.015Z,98969.69
2022-10-14T02:26:34.430Z,98965.09
2022-10-14T02:29:01.861Z,98959.88
2022-10-14T02:31:28.542Z,98948.84
2022-10-14T02:33:58.822Z,98954.25
2022-10-14T02:36:26.415Z,98952.22
2022-10-14T02:38:55.175Z,98938.69
2022-10-14T02:41:23.140Z,98952.63
2022-10-14T02:43:49.997Z,98954.28
2022-10-14T02:46:20.238Z,98958.47
2022-10-14T02:48:46.876Z,98947.63
2022-10-14T02:51:13.441Z,98940.53
2022-10-14T02:53:40.028Z,98949.91
2022-10-14T02:56:07.242Z,98950.34
2022-10-14T02:58:34.327Z,98943.28
2022-10-14T03:01:00.858Z,98928.72
2022-10-14T03:03:28.348Z,98929.13
2022-10-14T03:05:55.138Z,98925.81
2022-10-14T03:08:21.782Z,98922.47
2022-10-14T03:10:48.572Z,98920.81
2022-10-14T03:13:16.071Z,98930.81
2022-10-14T03:15:49.452Z,98938.72
2022-10-14T03:18:18.058Z,98936.19
2022-10-14T03:20:47.657Z,98938.09
2022-10-14T03:23:22.599Z,98945.59
2022-10-14T03:25:52.689Z,98933.72
2022-10-14T03:28:26.465Z,98943.28
2022-10-14T03:31:04.217Z,98941.84
2022-10-14T03:33:44.398Z,98943.09
2022-10-14T03:36:13.077Z,98947.03
2022-10-14T03:38:49.928Z,98949.56
2022-10-14T03:41:29.954Z,98955.41
2022-10-14T03:43:56.849Z,98950.00
2022-10-14T03:46:23.501Z,98940.22
2022-10-14T03:48:51.204Z,98939.78
2022-10-14T03:51:18.383Z,98943.94
2022-10-14T03:53:46.043Z,98945.84
2022-10-14T03:56:17.392Z,98950.22
2022-10-14T03:58:47.489Z,98947.50
2022-10-14T04:01:14.803Z,98944.59
2022-10-14T04:04:13.826Z,98943.53
2022-10-14T04:06:40.910Z,98940.00
2022-10-14T04:09:08.545Z,98942.94
2022-10-14T04:11:38.991Z,98945.41
2022-10-14T04:14:09.742Z,98943.75
2022-10-14T04:16:49.527Z,98937.31
2022-10-14T04:19:17.409Z,98930.22
2022-10-14T04:21:44.619Z,98935.88
2022-10-14T04:24:11.548Z,98934.38
2022-10-14T04:26:52.123Z,98940.84
2022-10-14T04:29:41.997Z,98936.25
2022-10-14T04:32:15.761Z,98937.09
2022-10-14T04:34:42.692Z,98934.59
2022-10-14T04:37:12.543Z,98915.88
2022-10-14T04:39:57.825Z,98927.97
2022-10-14T04:42:26.242Z,98920.03
2022-10-14T04:44:58.328Z,98914.00
2022-10-14T04:47:37.823Z,98915.03
2022-10-14T04:50:04.837Z,98912.72
2022-10-14T04:52:32.592Z,98902.94
2022-10-14T04:55:05.922Z,98903.38
2022-10-14T04:57:36.648Z,98908.81
2022-10-14T05:00:04.842Z,98899.63
2022-10-14T05:02:50.140Z,98903.78
2022-10-14T05:05:16.968Z,98897.75
2022-10-14T05:07:46.858Z,98898.19
2022-10-14T05:10:22.143Z,98902.13
2022-10-14T05:12:51.310Z,98906.72
2022-10-14T05:15:19.572Z,98897.16
2022-10-14T05:18:11.505Z,98917.34
2022-10-14T05:20:59.424Z,98917.97
2022-10-14T05:23:36.844Z,98920.69
2022-10-14T05:26:03.688Z,98916.31
2022-10-14T05:28:31.026Z,98906.53
2022-10-14T05:30:57.808Z,98925.25
2022-10-14T05:33:24.389Z,98919.88
2022-10-14T05:35:58.932Z,98919.63
2022-10-14T05:38:31.800Z,98928.41
2022-10-14T05:40:58.538Z,98925.47
2022-10-14T05:43:30.966Z,98929.41
2022-10-14T05:46:00.445Z,98932.53
2022-10-14T05:48:29.338Z,98935.25
2022-10-14T05:51:01.315Z,98939.63
2022-10-14T05:53:28.830Z,98930.88
2022-10-14T05:56:10.919Z,98931.06
2022-10-14T05:58:39.933Z,98927.97
2022-10-14T06:01:09.731Z,98918.19
2022-10-14T06:03:39.521Z,98924.81
2022-10-14T06:06:07.478Z,98914.00
2022-10-14T06:08:33.979Z,98907.94
2022-10-14T06:11:03.266Z,98909.41
2022-10-14T06:13:30.041Z,98917.06
2022-10-14T06:16:05.982Z,98907.53
2022-10-14T06:18:33.267Z,98920.00
2022-10-14T06:21:00.323Z,98910.22
2022-10-14T06:23:27.294Z,98913.31
2022-10-14T06:25:53.835Z,98916.84
2022-10-14T06:28:20.453Z,98919.78
2022-10-14T06:30:54.007Z,98926.00
2022-10-14T06:33:21.361Z,98918.94
2022-10-14T06:35:47.949Z,98925.00
2022-10-14T06:38:15.086Z,98919.78
2022-10-14T06:40:41.647Z,98924.78
2022-10-14T06:43:08.235Z,98924.34
2022-10-14T06:45:34.819Z,98916.41
2022-10-14T06:48:01.535Z,98919.16
2022-10-14T06:50:28.044Z,98907.88
2022-10-14T06:52:54.718Z,98916.41
2022-10-14T06:55:21.304Z,98907.25
2022-10-14T06:57:47.811Z,98907.03
2022-10-14T07:00:14.782Z,98914.91
2022-10-14T07:02:41.512Z,98925.28
2022-10-14T07:05:08.390Z,98926.34
2022-10-14T07:07:34.911Z,98926.38
2022-10-14T07:10:01.529Z,98935.06
2022-10-14T07:12:28.131Z,98934.84
2022-10-14T07:14:54.622Z,98938.16
2022-10-14T07:17:21.377Z,98941.47
2022-10-14T07:19:48.059Z,98951.00
2022-10-14T07:22:16.538Z,98933.47
2022-10-14T07:24:43.778Z,98956.75
2022-10-14T07:27:10.769Z,98947.56
2022-10-14T07:29:37.399Z,98952.13
2022-10-14T07:32:04.931Z,98943.09
2022-10-14T07:34:33.593Z,98941.00
2022-10-14T07:37:00.513Z,98943.28
2022-10-14T07:39:27.615Z,98937.63
2022-10-14T07:41:54.316Z,98948.25
2022-10-14T07:44:23.623Z,98947.44
2022-10-14T07:46:53.106Z,98955.81
2022-10-14T07:49:20.502Z,98962.50
2022-10-14T07:51:47.809Z,98955.03
2022-10-14T07:54:17.277Z,98960.41
2022-10-14T07:56:44.483Z,98952.31
2022-10-14T07:59:11.849Z,98963.13
2022-10-14T08:01:38.675Z,98959.38
2022-10-14T08:04:05.523Z,98967.91
2022-10-14T08:06:32.213Z,98968.94
2022-10-14T08:08:58.739Z,98969.97
2022-10-14T08:11:27.301Z,98957.47
2022-10-14T08:13:54.191Z,98956.84
2022-10-14T08:16:23.373Z,98959.94
2022-10-14T08:18:50.669Z,98955.13
2022-10-14T08:21:18.675Z,98964.03
2022-10-14T08:23:45.394Z,98960.47
2022-10-14T08:26:21.379Z,98961.47
2022-10-14T08:28:49.283Z,98965.56
2022-10-14T08:31:16.459Z,98964.25
2022-10-14T08:33:43.094Z,98948.81
2022-10-14T08:36:09.878Z,98959.53
2022-10-14T08:38:36.471Z,98960.75
2022-10-14T08:41:12.252Z,98968.75
2022-10-14T08:43:42.521Z,98968.84
2022-10-14T08:46:25.292Z,98963.03
2022-10-14T08:49:06.614Z,98965.63
2022-10-14T08:51:33.102Z,98960.59
2022-10-14T08:54:06.463Z,98954.50
2022-10-14T08:56:35.290Z,98966.50
2022-10-14T08:59:06.866Z,98970.56
2022-10-14T09:01:36.261Z,98971.88
2022-10-14T09:04:07.643Z,98974.16
2022-10-14T09:06:35.830Z,98960.56
2022-10-14T09:09:24.168Z,98967.28
2022-10-14T09:11:54.656Z,98961.84
2022-10-14T09:14:25.893Z,98965.19
2022-10-14T09:17:00.345Z,98958.22
2022-10-14T09:19:28.661Z,98965.91
2022-10-14T09:21:55.652Z,98962.88
2022-10-14T09:24:36.735Z,98963.94
2022-10-14T09:27:06.495Z,98962.50
2022-10-14T09:29:40.956Z,98959.09
2022-10-14T09:32:12.349Z,98960.75
2022-10-14T09:34:41.279Z,98964.19
2022-10-14T09:37:22.294Z,98954.97
2022-10-14T09:39:49.414Z,98959.28
2022-10-14T09:42:20.403Z,98957.06
2022-10-14T09:45:04.653Z,98955.53
2022-10-14T09:47:31.390Z,98957.31
2022-10-14T09:50:00.602Z,98952.63
2022-10-14T09:52:34.014Z,98946.72
2022-10-14T09:55:01.579Z,98950.41
2022-10-14T09:57:28.395Z,98959.88
2022-10-14T10:00:04.957Z,98953.50
2022-10-14T10:02:40.649Z,98956.47
2022-10-14T10:05:28.685Z,98949.97
2022-10-14T10:08:17.658Z,98946.75
2022-10-14T10:11:05.461Z,98941.09
2022-10-14T10:13:43.280Z,98941.06
2022-10-14T10:16:25.071Z,98935.19
2022-10-14T10:18:54.027Z,98932.47
2022-10-14T10:21:30.137Z,98937.66
2022-10-14T10:23:59.138Z,98940.00
2022-10-14T10:26:31.586Z,98937.66
2022-10-14T10:29:03.016Z,98939.22
2022-10-14T10:31:51.117Z,98940.72
2022-10-14T10:34:39.163Z,98930.88
2022-10-14T10:37:22.963Z,98924.63
2022-10-14T10:40:08.489Z,98926.97
2022-10-14T10:42:54.401Z,98924.75
2022-10-14T10:45:50.020Z,98938.59
2022-10-14T10:48:30.455Z,98928.78
2022-10-14T10:51:00.781Z,98925.31
2022-10-14T10:53:55.721Z,98921.06
2022-10-14T10:56:46.773Z,98922.13
2022-10-14T10:59:44.316Z,98926.84
2022-10-14T11:02:17.244Z,98925.97
2022-10-14T11:04:46.252Z,98920.03
2022-10-14T11:07:48.827Z,98932.69
2022-10-14T11:10:34.141Z,98926.25
2022-10-14T11:13:20.914Z,98916.88
2022-10-14T11:15:51.198Z,98922.38
2022-10-14T11:18:35.955Z,98905.28
2022-10-14T11:21:09.858Z,98906.59
2022-10-14T11:23:59.606Z,98906.44
2022-10-14T11:26:38.391Z,98901.22
2022-10-14T11:29:23.294Z,98901.03
2022-10-14T11:32:17.669Z,98887.41
2022-10-14T11:34:53.933Z,98883.44
2022-10-14T11:37:35.528Z,98877.81
2022-10-14T11:40:18.606Z,98871.50
2022-10-14T11:43:01.781Z,98867.53
2022-10-14T11:45:52.484Z,98870.06
2022-10-14T11:49:00.794Z,98866.00
2022-10-14T11:51:38.781Z,98858.53
2022-10-14T11:54:05.442Z,98858.38
2022-10-14T11:56:37.868Z,98849.41
2022-10-14T11:59:10.759Z,98835.03
2022-10-14T12:01:41.219Z,98845.69
2022-10-14T12:04:34.125Z,98849.75
2022-10-14T12:07:19.951Z,98850.84
2022-10-14T12:10:12.837Z,98835.63
2022-10-14T12:12:40.327Z,98837.38
2022-10-14T12:15:17.117Z,98842.31
2022-10-14T12:17:48.066Z,98837.94
2022-10-14T12:20:22.591Z,98826.75
2022-10-14T12:22:50.029Z,98832.72
2022-10-14T12:25:18.447Z,98826.75
2022-10-14T12:27:45.307Z,98829.94
2022-10-14T12:30:35.396Z,98824.28
2022-10-14T12:33:07.945Z,98816.56
2022-10-14T12:35:50.731Z,98826.31
2022-10-14T12:38:20.110Z,98826.06
2022-10-14T12:40:49.331Z,98806.88
2022-10-14T12:43:19.504Z,98810.78
2022-10-14T12:45:58.260Z,98812.47
2022-10-14T12:48:27.107Z,98806.47
2022-10-14T12:51:09.572Z,98805.19
2022-10-14T12:53:37.061Z,98806.16
2022-10-14T12:56:04.865Z,98790.66
2022-10-14T12:58:41.830Z,98782.94
2022-10-14T13:01:17.067Z,98775.28
2022-10-14T13:03:54.208Z,98792.84
2022-10-14T13:06:35.414Z,98786.25
2022-10-14T13:09:11.320Z,98789.56
2022-10-14T13:11:39.200Z,98784.31
2022-10-14T13:14:53.976Z,98788.97
2022-10-14T13:17:35.606Z,98777.97
2022-10-14T13:20:04.404Z,98774.59
2022-10-14T13:22:34.451Z,98773.28
2022-10-14T13:25:08.022Z,98768.66
2022-10-14T13:27:39.171Z,98764.56
2022-10-14T13:30:24.838Z,98766.81
2022-10-14T13:32:58.938Z,98769.03
2022-10-14T13:35:43.326Z,98760.38
2022-10-14T13:38:15.553Z,98762.63
2022-10-14T13:40:49.181Z,98762.13
2022-10-14T13:43:48.264Z,98756.31
2022-10-14T13:46:22.562Z,98745.53
2022-10-14T13:48:51.849Z,98739.94
2022-10-14T13:51:32.012Z,98744.69
2022-10-14T13:54:20.102Z,98741.97
2022-10-14T13:57:19.896Z,98741.09
2022-10-14T14:00:38.143Z,98737.41
2022-10-14T14:02:39.596Z,98738.88
2022-10-14T14:05:07.331Z,98737.41
2022-10-14T14:08:22.231Z,98729.25
2022-10-14T14:10:25.806Z,98734.06
2022-10-14T14:12:52.734Z,98733.53
2022-10-14T14:15:29.095Z,98728.19
2022-10-14T14:17:55.717Z,98722.31
2022-10-14T14:20:25.051Z,98729.31
2022-10-14T14:22:53.203Z,98738.44
2022-10-14T14:25:36.913Z,98732.03
2022-10-14T14:28:13.354Z,98728.34
2022-10-14T14:30:42.469Z,98722.00
2022-10-14T14:33:14.606Z,98721.53
2022-10-14T14:35:44.383Z,98728.69
2022-10-14T14:38:25.277Z,98724.38
2022-10-14T14:41:01.586Z,98725.09
2022-10-14T14:43:34.733Z,98723.19
2022-10-14T14:46:02.996Z,98711.88
2022-10-14T14:48:30.686Z,98718.38
2022-10-14T14:50:57.597Z,98703.78
2022-10-14T14:53:29.467Z,98706.00
2022-10-14T14:55:55.982Z,98712.19
2022-10-14T14:58:31.657Z,98707.25
2022-10-14T15:00:58.975Z,98704.91
2022-10-14T15:03:27.894Z,98712.41
2022-10-14T15:06:04.163Z,98721.22
2022-10-14T15:08:36.641Z,98718.66
2022-10-14T15:11:03.917Z,98713.97
2022-10-14T15:13:39.792Z,98718.19
2022-10-14T15:16:09.445Z,98712.31
2022-10-14T15:18:37.718Z,98712.34
2022-10-14T15:21:20.404Z,98711.53
2022-10-14T15:23:49.817Z,98718.72
2022-10-14T15:26:36.193Z,98716.75
2022-10-14T15:29:08.770Z,98710.25
2022-10-14T15:31:35.972Z,98710.69
2022-10-14T15:34:03.197Z,98701.25
2022-10-14T15:36:32.321Z,98704.78
2022-10-14T15:39:01.317Z,98712.53
2022-10-14T15:41:28.858Z,98716.91
2022-10-14T15:43:55.398Z,98716.34
2022-10-14T15:46:41.693Z,98718.66
2022-10-14T15:49:16.922Z,98723.81
2022-10-14T15:51:43.594Z,98716.34
2022-10-14T15:54:12.443Z,98714.41
2022-10-14T15:56:41.769Z,98708.38
2022-10-14T15:59:08.352Z,98709.16
2022-10-14T16:01:37.516Z,98706.00
2022-10-14T16:04:04.324Z,98716.56
2022-10-14T16:06:32.584Z,98715.19
2022-10-14T16:08:59.191Z,98711.09
2022-10-14T16:11:28.495Z,98714.88
2022-10-14T16:13:55.684Z,98704.34
2022-10-14T16:16:27.012Z,98718.81
2022-10-14T16:18:54.117Z,98725.34
2022-10-14T16:21:20.750Z,98711.38
2022-10-14T16:23:47.426Z,98711.06
2022-10-14T16:26:14.403Z,98710.69
2022-10-14T16:28:41.018Z,98717.44
2022-10-14T16:31:10.437Z,98713.34
2022-10-14T16:33:38.343Z,98716.03
2022-10-14T16:36:13.638Z,98723.97
2022-10-14T16:38:40.178Z,98712.69
2022-10-14T16:41:09.723Z,98721.97
2022-10-14T16:43:36.503Z,98725.09
2022-10-14T16:46:05.788Z,98717.75
2022-10-14T16:48:33.497Z,98718.13
2022-10-14T16:51:00.350Z,98721.25
2022-10-14T16:53:41.419Z,98720.66
2022-10-14T16:56:30.052Z,98734.59
2022-10-14T16:58:57.150Z,98728.69
2022-10-14T17:01:23.962Z,98724.06
2022-10-14T17:03:50.591Z,98740.91
2022-10-14T17:06:23.190Z,98735.63
2022-10-14T17:08:50.936Z,98740.47
2022-10-14T17:11:18.299Z,98740.69
2022-10-14T17:13:45.062Z,98748.38
2022-10-14T17:16:11.593Z,98743.44
2022-10-14T17:18:38.963Z,98755.31
2022-10-14T17:21:07.629Z,98753.06
2022-10-14T17:23:35.629Z,98752.94
2022-10-14T17:26:04.334Z,98751.44
2022-10-14T17:28:31.392Z,98752.31
2022-10-14T17:30:58.601Z,98765.88
2022-10-14T17:33:26.103Z,98766.66
2022-10-14T17:36:02.466Z,98770.13
2022-10-14T17:38:30.203Z,98768.47
2022-10-14T17:41:08.172Z,98768.06
2022-10-14T17:43:36.714Z,98752.97
2022-10-14T17:46:05.350Z,98769.56
2022-10-14T17:48:33.130Z,98781.75
2022-10-14T17:50:59.826Z,98780.22
2022-10-14T17:53:26.316Z,98779.66
2022-10-14T17:55:55.401Z,98783.63
2022-10-14T17:58:24.291Z,98790.16
2022-10-14T18:00:50.835Z,98794.13
2022-10-14T18:03:18.379Z,98787.78
2022-10-14T18:05:48.807Z,98791.66
2022-10-14T18:08:15.743Z,98786.56
2022-10-14T18:10:42.391Z,98787.50
2022-10-14T18:13:08.939Z,98789.09
2022-10-14T18:15:36.280Z,98787.63
2022-10-14T18:18:02.958Z,98780.28
2022-10-14T18:20:29.550Z,98781.19
2022-10-14T18:22:56.437Z,98776.94
2022-10-14T18:25:23.424Z,98778.38
2022-10-14T18:27:50.253Z,98776.47
2022-10-14T18:30:16.854Z,98777.78
2022-10-14T18:32:43.389Z,98788.53
2022-10-14T18:35:10.215Z,98782.00
2022-10-14T18:37:36.754Z,98792.31
2022-10-14T18:40:03.740Z,98777.69
2022-10-14T18:42:30.378Z,98788.34
2022-10-14T18:44:59.045Z,98792.50
2022-10-14T18:47:25.712Z,98785.53
2022-10-14T18:49:52.310Z,98782.88
2022-10-14T18:52:20.794Z,98779.41
2022-10-14T18:54:47.607Z,98786.31
2022-10-14T18:57:14.932Z,98778.50
2022-10-14T18:59:41.791Z,98784.22
2022-10-14T19:02:12.568Z,98788.31
2022-10-14T19:04:39.245Z,98784.28
2022-10-14T19:07:08.442Z,98781.88
2022-10-14T19:09:35.174Z,98780.78
2022-10-14T19:12:21.864Z,98771.22
2022-10-14T19:14:48.725Z,98782.75
2022-10-14T19:17:15.362Z,98774.72
2022-10-14T19:19:42.460Z,98767.63
2022-10-14T19:22:10.442Z,98781.34
2022-10-14T19:24:36.934Z,98773.78
2022-10-14T19:27:03.525Z,98769.66
2022-10-14T19:29:30.053Z,98776.63
2022-10-14T19:31:57.200Z,98775.03
2022-10-14T19:34:26.924Z,98779.16
2022-10-14T19:36:53.881Z,98782.88
2022-10-14T19:39:20.406Z,98786.66
2022-10-14T19:41:47.364Z,98783.69
2022-10-14T19:44:15.103Z,98783.56
2022-10-14T19:46:41.782Z,98782.25
2022-10-14T19:49:11.197Z,98787.00
2022-10-14T19:51:38.513Z,98787.03
2022-10-14T19:54:05.239Z,98799.31
2022-10-14T19:56:31.762Z,98795.44
2022-10-14T19:58:58.950Z,98785.84
2022-10-14T20:01:27.929Z,98784.22
2022-10-14T20:03:54.569Z,98787.63
2022-10-14T20:06:22.086Z,98793.91
2022-10-14T20:08:49.801Z,98797.38
2022-10-14T20:11:18.529Z,98806.59
2022-10-14T20:13:45.469Z,98805.78
2022-10-14T20:16:13.016Z,98804.31
2022-10-14T20:18:39.624Z,98805.78
2022-10-14T20:21:07.410Z,98803.66
2022-10-14T20:23:35.130Z,98814.63
2022-10-14T20:26:03.216Z,98814.38
2022-10-14T20:28:29.903Z,98809.66
2022-10-14T20:30:57.408Z,98807.44
2022-10-14T20:33:24.632Z,98809.66
2022-10-14T20:36:06.240Z,98820.66
2022-10-14T20:38:33.876Z,98800.78
2022-10-14T20:41:06.759Z,98806.56
2022-10-14T20:43:33.394Z,98814.88
2022-10-14T20:46:00.156Z,98814.72
2022-10-14T20:48:26.724Z,98812.38
2022-10-14T20:50:53.268Z,98811.78
2022-10-14T20:53:19.905Z,98805.66
2022-10-14T20:55:46.469Z,98810.34
2022-10-14T20:58:12.968Z,98803.25
2022-10-14T21:00:39.536Z,98803.47
2022-10-14T21:03:06.163Z,98811.75
2022-10-14T21:05:37.035Z,98808.91
2022-10-14T21:08:04.474Z,98803.72
2022-10-14T21:10:30.974Z,98799.69
2022-10-14T21:12:57.530Z,98801.25
2022-10-14T21:15:26.783Z,98801.56
2022-10-14T21:17:53.298Z,98811.88
2022-10-14T21:20:19.879Z,98809.59
2022-10-14T21:22:46.468Z,98812.88
2022-10-14T21:25:13.022Z,98804.88
2022-10-14T21:27:39.535Z,98807.81
2022-10-14T21:30:06.771Z,98804.03
2022-10-14T21:32:33.278Z,98795.06
2022-10-14T21:34:59.884Z,98806.75
2022-10-14T21:37:26.386Z,98810.78
2022-10-14T21:39:52.915Z,98812.28
2022-10-14T21:42:19.715Z,98815.59
2022-10-14T21:44:46.291Z,98813.09
2022-10-14T21:47:12.872Z,98817.81
2022-10-14T21:49:39.467Z,98809.78
2022-10-14T21:52:06.268Z,98803.97
2022-10-14T21:54:32.770Z,98806.09
2022-10-14T21:56:59.297Z,98805.16
2022-10-14T21:59:25.834Z,98801.84
2022-10-14T22:01:56.361Z,98805.97
2022-10-14T22:04:22.910Z,98805.00
2022-10-14T22:06:49.419Z,98799.22
2022-10-14T22:09:15.940Z,98804.50
2022-10-14T22:11:42.532Z,98797.81
2022-10-14T22:14:14.878Z,98801.69
2022-10-14T22:16:41.479Z,98792.13
2022-10-14T22:19:08.098Z,98796.50
2022-10-14T22:21:36.448Z,98788.22
2022-10-14T22:24:03.625Z,98802.41
2022-10-14T22:26:30.889Z,98806.53
2022-10-14T22:28:58.944Z,98790.72
2022-10-14T22:31:25.988Z,98791.97
2022-10-14T22:33:52.647Z,98796.81
2022-10-14T22:36:23.837Z,98795.84
2022-10-14T22:38:52.300Z,98797.56
2022-10-14T22:41:19.968Z,98794.50
2022-10-14T22:43:51.703Z,98792.75
2022-10-14T22:46:20.351Z,98802.53
2022-10-14T22:48:50.789Z,98790.56
2022-10-14T22:51:19.135Z,98791.16
2022-10-14T22:53:46.821Z,98795.19
2022-10-14T22:56:16.031Z,98784.91
2022-10-14T22:58:43.085Z,98789.50
2022-10-14T23:01:15.257Z,98783.72
2022-10-14T23:03:42.527Z,98787.25
2022-10-14T23:06:11.655Z,98790.53
2022-10-14T23:08:38.589Z,98790.69
2022-10-14T23:11:06.250Z,98784.88
2022-10-14T23:13:33.399Z,98788.41
2022-10-14T23:16:05.872Z,98783.22
2022-10-14T23:18:35.073Z,98785.34
2022-10-14T23:21:13.546Z,98795.38
2022-10-14T23:23:40.181Z,98794.38
2022-10-14T23:26:09.607Z,98794.16
2022-10-14T23:28:36.494Z,98788.00
2022-10-14T23:31:15.587Z,98789.88
2022-10-14T23:33:42.379Z,98791.84
2022-10-14T23:36:11.598Z,98794.72
2022-10-14T23:38:39.292Z,98795.38
2022-10-14T23:41:06.772Z,98799.75
2022-10-14T23:43:33.480Z,98798.78
2022-10-14T23:46:00.122Z,98800.88
2022-10-14T23:48:27.050Z,98805.03
2022-10-14T23:50:53.598Z,98805.94
2022-10-14T23:53:20.412Z,98805.94
2022-10-14T23:55:47.317Z,98812.47
2022-10-14T23:58:13.866Z,98805.03
